createdAt,value
2022-09-06T00:01:07.000Z,0
2022-09-06T00:02:23.000Z,0
2022-09-06T00:03:40.000Z,0
2022-09-06T00:04:56.000Z,0
2022-09-06T00:06:12.000Z,0
2022-09-06T00:07:28.000Z,0
2022-09-06T00:08:44.000Z,0
2022-09-06T00:11:17.000Z,0
2022-09-06T00:12:33.000Z,0
2022-09-06T00:13:49.000Z,0
2022-09-06T00:15:05.000Z,0
2022-09-06T00:16:21.000Z,0
2022-09-06T00:17:37.000Z,0
2022-09-06T00:18:53.000Z,0
2022-09-06T00:20:09.000Z,0
2022-09-06T00:21:25.000Z,0
2022-09-06T00:22:41.000Z,0
2022-09-06T00:23:58.000Z,0
2022-09-06T00:25:14.000Z,0
2022-09-06T00:26:29.000Z,0
2022-09-06T00:27:44.000Z,0
2022-09-06T00:29:00.000Z,0
2022-09-06T00:30:15.000Z,0
2022-09-06T00:31:31.000Z,0
2022-09-06T00:32:47.000Z,0
2022-09-06T00:34:03.000Z,0
2022-09-06T00:36:36.000Z,0
2022-09-06T00:37:52.000Z,0
2022-09-06T00:39:08.000Z,0
2022-09-06T00:40:24.000Z,0
2022-09-06T00:41:41.000Z,0
2022-09-06T00:42:57.000Z,0
2022-09-06T00:44:13.000Z,0
2022-09-06T00:45:29.000Z,0
2022-09-06T00:46:44.000Z,0
2022-09-06T00:48:01.000Z,0
2022-09-06T00:49:17.000Z,0
2022-09-06T00:50:33.000Z,0
2022-09-06T00:51:49.000Z,0
2022-09-06T00:53:05.000Z,0
2022-09-06T00:54:21.000Z,0
2022-09-06T00:55:38.000Z,0
2022-09-06T00:56:53.000Z,0
2022-09-06T00:58:09.000Z,0
2022-09-06T00:59:24.000Z,0
2022-09-06T01:00:40.000Z,0
2022-09-06T01:01:56.000Z,0
2022-09-06T01:03:11.000Z,0
2022-09-06T01:04:26.000Z,0
2022-09-06T01:05:42.000Z,0
2022-09-06T01:06:59.000Z,0
2022-09-06T01:08:15.000Z,0
2022-09-06T01:09:31.000Z,0
2022-09-06T01:10:47.000Z,0
2022-09-06T01:12:02.000Z,0
2022-09-06T01:13:19.000Z,0
2022-09-06T01:14:35.000Z,0
2022-09-06T01:15:51.000Z,0
2022-09-06T01:17:07.000Z,0
2022-09-06T01:18:23.000Z,0
2022-09-06T01:19:40.000Z,0
2022-09-06T01:20:56.000Z,0
2022-09-06T01:22:12.000Z,0
2022-09-06T01:23:28.000Z,0
2022-09-06T01:24:44.000Z,0
2022-09-06T01:26:01.000Z,0
2022-09-06T01:27:17.000Z,0
2022-09-06T01:28:33.000Z,0
2022-09-06T01:29:48.000Z,0
2022-09-06T01:31:03.000Z,0
2022-09-06T01:32:19.000Z,0
2022-09-06T01:33:34.000Z,0
2022-09-06T01:34:50.000Z,0
2022-09-06T01:36:06.000Z,0
2022-09-06T01:37:22.000Z,0
2022-09-06T01:39:55.000Z,0
2022-09-06T01:41:11.000Z,0
2022-09-06T01:42:27.000Z,0
2022-09-06T01:43:43.000Z,0
2022-09-06T01:44:59.000Z,0
2022-09-06T01:46:16.000Z,0
2022-09-06T01:47:32.000Z,0
2022-09-06T01:48:48.000Z,0
2022-09-06T01:50:04.000Z,0
2022-09-06T01:51:19.000Z,0
2022-09-06T01:52:36.000Z,0
2022-09-06T01:53:52.000Z,0
2022-09-06T01:55:08.000Z,0
2022-09-06T01:56:24.000Z,0
2022-09-06T01:57:40.000Z,0
2022-09-06T01:58:57.000Z,0
2022-09-06T02:00:12.000Z,0
2022-09-06T02:01:27.000Z,0
2022-09-06T02:02:42.000Z,0
2022-09-06T02:03:57.000Z,0
2022-09-06T02:05:14.000Z,0
2022-09-06T02:06:30.000Z,0
2022-09-06T02:07:46.000Z,0
2022-09-06T02:09:02.000Z,0
2022-09-06T02:10:18.000Z,0
2022-09-06T02:11:35.000Z,0
2022-09-06T02:12:51.000Z,0
2022-09-06T02:14:07.000Z,0
2022-09-06T02:15:23.000Z,0
2022-09-06T02:17:56.000Z,0
2022-09-06T02:19:12.000Z,0
2022-09-06T02:20:27.000Z,0
2022-09-06T02:21:43.000Z,0
2022-09-06T02:22:59.000Z,0
2022-09-06T02:24:16.000Z,0
2022-09-06T02:25:32.000Z,0
2022-09-06T02:26:48.000Z,0
2022-09-06T02:28:04.000Z,0
2022-09-06T02:29:20.000Z,0
2022-09-06T02:30:36.000Z,0
2022-09-06T02:31:51.000Z,0
2022-09-06T02:33:06.000Z,0
2022-09-06T02:34:21.000Z,0
2022-09-06T02:35:37.000Z,0
2022-09-06T02:36:54.000Z,0
2022-09-06T02:38:10.000Z,0
2022-09-06T02:39:26.000Z,0
2022-09-06T02:40:42.000Z,0
2022-09-06T02:41:58.000Z,0
2022-09-06T02:43:15.000Z,0
2022-09-06T02:44:31.000Z,0
2022-09-06T02:45:47.000Z,0
2022-09-06T02:47:03.000Z,0
2022-09-06T02:48:19.000Z,0
2022-09-06T02:49:36.000Z,0
2022-09-06T02:50:51.000Z,0
2022-09-06T02:52:07.000Z,0
2022-09-06T02:53:23.000Z,0
2022-09-06T02:54:39.000Z,0
2022-09-06T02:55:56.000Z,0
2022-09-06T02:57:12.000Z,0
2022-09-06T02:58:28.000Z,0
2022-09-06T02:59:43.000Z,0
2022-09-06T03:00:58.000Z,0
2022-09-06T03:02:15.000Z,0
2022-09-06T03:03:30.000Z,0
2022-09-06T03:04:45.000Z,0
2022-09-06T03:06:01.000Z,0
2022-09-06T03:07:17.000Z,0
2022-09-06T03:08:34.000Z,0
2022-09-06T03:09:50.000Z,0
2022-09-06T03:11:06.000Z,0
2022-09-06T03:12:22.000Z,0
2022-09-06T03:13:38.000Z,0
2022-09-06T03:14:55.000Z,0
2022-09-06T03:16:11.000Z,0
2022-09-06T03:17:27.000Z,0
2022-09-06T03:18:43.000Z,0
2022-09-06T03:19:59.000Z,0
2022-09-06T03:21:15.000Z,0
2022-09-06T03:22:31.000Z,0
2022-09-06T03:23:47.000Z,0
2022-09-06T03:25:03.000Z,0
2022-09-06T03:26:19.000Z,0
2022-09-06T03:27:35.000Z,0
2022-09-06T03:28:52.000Z,0
2022-09-06T03:30:07.000Z,0
2022-09-06T03:31:22.000Z,0
2022-09-06T03:32:38.000Z,0
2022-09-06T03:33:54.000Z,0
2022-09-06T03:35:11.000Z,0
2022-09-06T03:36:27.000Z,0
2022-09-06T03:37:42.000Z,0
2022-09-06T03:38:57.000Z,0
2022-09-06T03:40:13.000Z,0
2022-09-06T03:41:30.000Z,0
2022-09-06T03:42:46.000Z,0
2022-09-06T03:44:02.000Z,0
2022-09-06T03:45:18.000Z,0
2022-09-06T03:46:34.000Z,0
2022-09-06T03:47:51.000Z,0
2022-09-06T03:49:07.000Z,0
2022-09-06T03:50:23.000Z,0
2022-09-06T03:51:39.000Z,0
2022-09-06T03:52:55.000Z,0
2022-09-06T03:54:12.000Z,0
2022-09-06T03:55:27.000Z,0
2022-09-06T03:56:43.000Z,0
2022-09-06T03:59:15.000Z,0
2022-09-06T04:00:32.000Z,0
2022-09-06T04:01:48.000Z,0
2022-09-06T04:03:04.000Z,0
2022-09-06T04:04:20.000Z,0
2022-09-06T04:05:35.000Z,0
2022-09-06T04:06:51.000Z,0
2022-09-06T04:08:06.000Z,0
2022-09-06T04:09:21.000Z,0
2022-09-06T04:11:53.000Z,0
2022-09-06T04:13:10.000Z,0
2022-09-06T04:14:26.000Z,0
2022-09-06T04:15:42.000Z,0
2022-09-06T04:16:58.000Z,0
2022-09-06T04:18:14.000Z,0
2022-09-06T04:19:31.000Z,0
2022-09-06T04:20:47.000Z,0
2022-09-06T04:22:03.000Z,0
2022-09-06T04:23:19.000Z,0
2022-09-06T04:24:35.000Z,0
2022-09-06T04:25:51.000Z,0
2022-09-06T04:27:07.000Z,0
2022-09-06T04:28:23.000Z,0
2022-09-06T04:29:39.000Z,0
2022-09-06T04:30:55.000Z,0
2022-09-06T04:32:12.000Z,0
2022-09-06T04:33:28.000Z,0
2022-09-06T04:34:44.000Z,0
2022-09-06T04:35:59.000Z,0
2022-09-06T04:37:14.000Z,0
2022-09-06T04:38:30.000Z,0
2022-09-06T04:39:45.000Z,0
2022-09-06T04:41:01.000Z,0
2022-09-06T04:42:17.000Z,0
2022-09-06T04:43:33.000Z,0
2022-09-06T04:44:50.000Z,0
2022-09-06T04:46:06.000Z,0
2022-09-06T04:47:22.000Z,0
2022-09-06T04:48:38.000Z,0
2022-09-06T04:49:54.000Z,0
2022-09-06T04:51:11.000Z,0
2022-09-06T04:52:27.000Z,0
2022-09-06T04:53:43.000Z,0
2022-09-06T04:54:59.000Z,0
2022-09-06T04:56:14.000Z,0
2022-09-06T04:57:31.000Z,0
2022-09-06T04:58:47.000Z,0
2022-09-06T05:00:03.000Z,0
2022-09-06T05:01:19.000Z,0
2022-09-06T05:02:35.000Z,0
2022-09-06T05:03:51.000Z,0
2022-09-06T05:05:07.000Z,0
2022-09-06T05:06:22.000Z,0
2022-09-06T05:07:38.000Z,0
2022-09-06T05:08:54.000Z,0
2022-09-06T05:10:10.000Z,0
2022-09-06T05:11:27.000Z,0
2022-09-06T05:12:43.000Z,0
2022-09-06T05:13:59.000Z,0
2022-09-06T05:15:15.000Z,0
2022-09-06T05:16:31.000Z,0
2022-09-06T05:17:48.000Z,0
2022-09-06T05:19:04.000Z,0
2022-09-06T05:20:20.000Z,5
2022-09-06T05:21:36.000Z,5
2022-09-06T05:22:51.000Z,5
2022-09-06T05:24:08.000Z,5
2022-09-06T05:25:24.000Z,5
2022-09-06T05:27:55.000Z,5
2022-09-06T05:29:10.000Z,5
2022-09-06T05:30:27.000Z,5
2022-09-06T05:31:43.000Z,11
2022-09-06T05:32:58.000Z,11
2022-09-06T05:34:13.000Z,11
2022-09-06T05:35:28.000Z,11
2022-09-06T05:36:44.000Z,11
2022-09-06T05:38:00.000Z,11
2022-09-06T05:39:16.000Z,11
2022-09-06T05:40:32.000Z,11
2022-09-06T05:41:48.000Z,11
2022-09-06T05:43:05.000Z,5
2022-09-06T05:44:21.000Z,11
2022-09-06T05:45:37.000Z,11
2022-09-06T05:46:53.000Z,11
2022-09-06T05:48:09.000Z,11
2022-09-06T05:49:26.000Z,11
2022-09-06T05:50:42.000Z,11
2022-09-06T05:51:58.000Z,11
2022-09-06T05:53:13.000Z,11
2022-09-06T05:54:29.000Z,11
2022-09-06T05:55:46.000Z,11
2022-09-06T05:57:02.000Z,11
2022-09-06T05:58:18.000Z,11
2022-09-06T05:59:34.000Z,16
2022-09-06T06:00:50.000Z,16
2022-09-06T06:02:06.000Z,16
2022-09-06T06:03:21.000Z,16
2022-09-06T06:04:36.000Z,16
2022-09-06T06:05:51.000Z,16
2022-09-06T06:07:07.000Z,22
2022-09-06T06:08:24.000Z,22
2022-09-06T06:09:40.000Z,22
2022-09-06T06:10:56.000Z,28
2022-09-06T06:12:12.000Z,28
2022-09-06T06:13:28.000Z,28
2022-09-06T06:14:45.000Z,28
2022-09-06T06:16:01.000Z,28
2022-09-06T06:17:17.000Z,28
2022-09-06T06:18:33.000Z,28
2022-09-06T06:19:49.000Z,22
2022-09-06T06:21:06.000Z,22
2022-09-06T06:22:22.000Z,22
2022-09-06T06:23:37.000Z,16
2022-09-06T06:24:53.000Z,16
2022-09-06T06:26:09.000Z,16
2022-09-06T06:27:26.000Z,16
2022-09-06T06:28:42.000Z,22
2022-09-06T06:31:14.000Z,22
2022-09-06T06:32:29.000Z,28
2022-09-06T06:33:45.000Z,28
2022-09-06T06:35:01.000Z,28
2022-09-06T06:36:16.000Z,33
2022-09-06T06:37:31.000Z,33
2022-09-06T06:38:47.000Z,39
2022-09-06T06:40:04.000Z,39
2022-09-06T06:41:20.000Z,45
2022-09-06T06:42:36.000Z,50
2022-09-06T06:43:52.000Z,56
2022-09-06T06:45:08.000Z,61
2022-09-06T06:46:25.000Z,67
2022-09-06T06:47:41.000Z,73
2022-09-06T06:48:57.000Z,78
2022-09-06T06:50:13.000Z,84
2022-09-06T06:51:29.000Z,90
2022-09-06T06:52:45.000Z,95
2022-09-06T06:54:01.000Z,101
2022-09-06T06:55:17.000Z,112
2022-09-06T06:56:33.000Z,123
2022-09-06T06:57:49.000Z,135
2022-09-06T06:59:05.000Z,146
2022-09-06T07:00:22.000Z,151
2022-09-06T07:01:38.000Z,163
2022-09-06T07:02:53.000Z,174
2022-09-06T07:04:08.000Z,191
2022-09-06T07:05:24.000Z,213
2022-09-06T07:06:41.000Z,202
2022-09-06T07:07:57.000Z,230
2022-09-06T07:09:13.000Z,225
2022-09-06T07:10:29.000Z,213
2022-09-06T07:11:45.000Z,213
2022-09-06T07:13:02.000Z,236
2022-09-06T07:14:18.000Z,438
2022-09-06T07:15:34.000Z,208
2022-09-06T07:16:50.000Z,208
2022-09-06T07:18:06.000Z,191
2022-09-06T07:19:23.000Z,208
2022-09-06T07:20:38.000Z,241
2022-09-06T07:21:54.000Z,281
2022-09-06T07:23:10.000Z,371
2022-09-06T07:24:26.000Z,455
2022-09-06T07:25:43.000Z,534
2022-09-06T07:26:59.000Z,635
2022-09-06T07:28:15.000Z,568
2022-09-06T07:29:30.000Z,523
2022-09-06T07:30:45.000Z,528
2022-09-06T07:32:01.000Z,613
2022-09-06T07:34:33.000Z,1001
2022-09-06T07:35:48.000Z,883
2022-09-06T07:37:03.000Z,4635
2022-09-06T07:38:20.000Z,3650
2022-09-06T07:39:36.000Z,4978
2022-09-06T07:40:52.000Z,4730
2022-09-06T07:42:08.000Z,4393
2022-09-06T07:43:24.000Z,4719
2022-09-06T07:44:41.000Z,4753
2022-09-06T07:45:57.000Z,4623
2022-09-06T07:47:13.000Z,4798
2022-09-06T07:48:29.000Z,4747
2022-09-06T07:49:45.000Z,4775
2022-09-06T07:51:02.000Z,4786
2022-09-06T07:52:18.000Z,4843
2022-09-06T07:53:33.000Z,4916
2022-09-06T07:54:49.000Z,4910
2022-09-06T07:56:05.000Z,4792
2022-09-06T07:57:22.000Z,4471
2022-09-06T07:58:38.000Z,4831
2022-09-06T07:59:54.000Z,4803
2022-09-06T08:01:10.000Z,4792
2022-09-06T08:02:25.000Z,4680
2022-09-06T08:03:41.000Z,4809
2022-09-06T08:04:57.000Z,4826
2022-09-06T08:06:13.000Z,4871
2022-09-06T08:07:29.000Z,4921
2022-09-06T08:08:45.000Z,4826
2022-09-06T08:10:02.000Z,4950
2022-09-06T08:12:34.000Z,5051
2022-09-06T08:13:50.000Z,4950
2022-09-06T08:15:06.000Z,5051
2022-09-06T08:16:23.000Z,4865
2022-09-06T08:17:39.000Z,4696
2022-09-06T08:18:55.000Z,4944
2022-09-06T08:20:10.000Z,4927
2022-09-06T08:21:26.000Z,5152
2022-09-06T08:22:43.000Z,5124
2022-09-06T08:23:59.000Z,4944
2022-09-06T08:25:15.000Z,5006
2022-09-06T08:26:31.000Z,4843
2022-09-06T08:27:47.000Z,5034
2022-09-06T08:29:04.000Z,4865
2022-09-06T08:30:19.000Z,4708
2022-09-06T08:31:34.000Z,4865
2022-09-06T08:32:49.000Z,4950
2022-09-06T08:34:04.000Z,4871
2022-09-06T08:35:20.000Z,4725
2022-09-06T08:37:51.000Z,4663
2022-09-06T08:39:07.000Z,4708
2022-09-06T08:40:23.000Z,4612
2022-09-06T08:41:40.000Z,4545
2022-09-06T08:42:56.000Z,4359
2022-09-06T08:44:12.000Z,4623
2022-09-06T08:45:28.000Z,4758
2022-09-06T08:46:44.000Z,4770
2022-09-06T08:48:01.000Z,4820
2022-09-06T08:49:17.000Z,4786
2022-09-06T08:50:33.000Z,4657
2022-09-06T08:51:49.000Z,4595
2022-09-06T08:53:04.000Z,4488
2022-09-06T08:54:21.000Z,4477
2022-09-06T08:55:37.000Z,4336
2022-09-06T08:56:53.000Z,4381
2022-09-06T08:58:09.000Z,4471
2022-09-06T08:59:25.000Z,4320
2022-09-06T09:00:42.000Z,4387
2022-09-06T09:01:58.000Z,4252
2022-09-06T09:03:13.000Z,3892
2022-09-06T09:04:28.000Z,2385
2022-09-06T09:05:44.000Z,810
2022-09-06T09:07:01.000Z,866
2022-09-06T09:08:16.000Z,1389
2022-09-06T09:09:31.000Z,2126
2022-09-06T09:10:47.000Z,2733
2022-09-06T09:12:04.000Z,3178
2022-09-06T09:13:20.000Z,3667
2022-09-06T09:15:52.000Z,1153
2022-09-06T09:17:08.000Z,641
2022-09-06T09:18:24.000Z,618
2022-09-06T09:19:41.000Z,607
2022-09-06T09:20:57.000Z,590
2022-09-06T09:22:13.000Z,579
2022-09-06T09:23:29.000Z,562
2022-09-06T09:24:45.000Z,551
2022-09-06T09:26:01.000Z,545
2022-09-06T09:27:17.000Z,540
2022-09-06T09:28:33.000Z,528
2022-09-06T09:29:49.000Z,523
2022-09-06T09:31:05.000Z,523
2022-09-06T09:32:22.000Z,517
2022-09-06T09:33:38.000Z,511
2022-09-06T09:34:54.000Z,511
2022-09-06T09:36:09.000Z,506
2022-09-06T09:37:24.000Z,500
2022-09-06T09:38:40.000Z,500
2022-09-06T09:41:11.000Z,489
2022-09-06T09:42:27.000Z,483
2022-09-06T09:43:43.000Z,483
2022-09-06T09:44:59.000Z,478
2022-09-06T09:46:15.000Z,472
2022-09-06T09:47:31.000Z,472
2022-09-06T09:48:47.000Z,466
2022-09-06T09:50:03.000Z,461
2022-09-06T09:51:20.000Z,455
2022-09-06T09:52:36.000Z,455
2022-09-06T09:53:52.000Z,450
2022-09-06T09:55:08.000Z,450
2022-09-06T09:56:24.000Z,444
2022-09-06T09:57:41.000Z,438
2022-09-06T09:58:57.000Z,438
2022-09-06T10:00:12.000Z,438
2022-09-06T10:01:28.000Z,433
2022-09-06T10:02:44.000Z,433
2022-09-06T10:04:01.000Z,427
2022-09-06T10:05:17.000Z,427
2022-09-06T10:06:32.000Z,421
2022-09-06T10:07:47.000Z,421
2022-09-06T10:09:02.000Z,416
2022-09-06T10:10:18.000Z,410
2022-09-06T10:11:34.000Z,410
2022-09-06T10:12:50.000Z,410
2022-09-06T10:14:06.000Z,405
2022-09-06T10:15:22.000Z,405
2022-09-06T10:16:39.000Z,399
2022-09-06T10:20:27.000Z,393
2022-09-06T10:21:43.000Z,388
2022-09-06T10:23:00.000Z,388
2022-09-06T10:24:16.000Z,382
2022-09-06T10:25:31.000Z,382
2022-09-06T10:26:46.000Z,376
2022-09-06T10:28:02.000Z,376
2022-09-06T10:29:19.000Z,371
2022-09-06T10:30:35.000Z,371
2022-09-06T10:31:51.000Z,365
2022-09-06T10:33:07.000Z,365
2022-09-06T10:34:23.000Z,360
2022-09-06T10:35:40.000Z,360
2022-09-06T10:36:56.000Z,354
2022-09-06T10:38:12.000Z,348
2022-09-06T10:39:27.000Z,348
2022-09-06T10:40:42.000Z,348
2022-09-06T10:41:59.000Z,343
2022-09-06T10:43:15.000Z,343
2022-09-06T10:44:31.000Z,343
2022-09-06T10:45:47.000Z,343
2022-09-06T10:47:03.000Z,343
2022-09-06T10:48:20.000Z,337
2022-09-06T10:49:36.000Z,331
2022-09-06T10:50:52.000Z,331
2022-09-06T10:52:08.000Z,331
2022-09-06T10:53:24.000Z,326
2022-09-06T10:54:41.000Z,326
2022-09-06T10:57:13.000Z,320
2022-09-06T10:58:28.000Z,320
2022-09-06T10:59:44.000Z,320
2022-09-06T11:01:01.000Z,315
2022-09-06T11:02:17.000Z,315
2022-09-06T11:03:33.000Z,309
2022-09-06T11:04:49.000Z,309
2022-09-06T11:06:05.000Z,309
2022-09-06T11:07:21.000Z,303
2022-09-06T11:08:36.000Z,298
2022-09-06T11:09:52.000Z,298
2022-09-06T11:11:08.000Z,292
2022-09-06T11:12:24.000Z,292
2022-09-06T11:13:41.000Z,286
2022-09-06T11:14:57.000Z,286
2022-09-06T11:16:13.000Z,281
2022-09-06T11:17:29.000Z,275
2022-09-06T11:18:45.000Z,275
2022-09-06T11:20:02.000Z,275
2022-09-06T11:21:18.000Z,270
2022-09-06T11:22:34.000Z,270
2022-09-06T11:23:50.000Z,270
2022-09-06T11:25:05.000Z,264
2022-09-06T11:26:22.000Z,264
2022-09-06T11:27:38.000Z,258
2022-09-06T11:28:54.000Z,258
2022-09-06T11:30:10.000Z,258
2022-09-06T11:31:26.000Z,253
2022-09-06T11:32:43.000Z,253
2022-09-06T11:33:58.000Z,253
2022-09-06T11:35:13.000Z,247
2022-09-06T11:36:28.000Z,247
2022-09-06T11:37:43.000Z,241
2022-09-06T11:39:00.000Z,241
2022-09-06T11:40:15.000Z,241
2022-09-06T11:41:30.000Z,241
2022-09-06T11:42:46.000Z,241
2022-09-06T11:44:02.000Z,236
2022-09-06T11:45:19.000Z,236
2022-09-06T11:46:35.000Z,236
2022-09-06T11:47:51.000Z,236
2022-09-06T11:49:07.000Z,230
2022-09-06T11:50:23.000Z,225
2022-09-06T11:51:40.000Z,225
2022-09-06T11:52:56.000Z,225
2022-09-06T11:54:12.000Z,219
2022-09-06T11:55:28.000Z,219
2022-09-06T11:56:44.000Z,219
2022-09-06T11:58:00.000Z,219
2022-09-06T12:00:32.000Z,213
2022-09-06T12:01:48.000Z,213
2022-09-06T12:03:04.000Z,213
2022-09-06T12:04:21.000Z,213
2022-09-06T12:05:37.000Z,208
2022-09-06T12:06:53.000Z,208
2022-09-06T12:08:08.000Z,208
2022-09-06T12:09:23.000Z,208
2022-09-06T12:10:39.000Z,202
2022-09-06T12:11:54.000Z,202
2022-09-06T12:13:10.000Z,202
2022-09-06T12:14:26.000Z,202
2022-09-06T12:15:42.000Z,202
2022-09-06T12:16:59.000Z,196
2022-09-06T12:18:15.000Z,196
2022-09-06T12:19:31.000Z,196
2022-09-06T12:20:47.000Z,196
2022-09-06T12:22:03.000Z,191
2022-09-06T12:23:20.000Z,191
2022-09-06T12:25:52.000Z,191
2022-09-06T12:27:08.000Z,191
2022-09-06T12:28:23.000Z,191
2022-09-06T12:29:40.000Z,185
2022-09-06T12:30:56.000Z,185
2022-09-06T12:32:12.000Z,185
2022-09-06T12:33:28.000Z,185
2022-09-06T12:34:44.000Z,185
2022-09-06T12:36:01.000Z,185
2022-09-06T12:37:17.000Z,185
2022-09-06T12:38:32.000Z,185
2022-09-06T12:39:47.000Z,185
2022-09-06T12:41:02.000Z,185
2022-09-06T12:42:18.000Z,185
2022-09-06T12:43:34.000Z,185
2022-09-06T12:44:50.000Z,185
2022-09-06T12:46:06.000Z,185
2022-09-06T12:47:22.000Z,191
2022-09-06T12:48:39.000Z,191
2022-09-06T12:49:55.000Z,191
2022-09-06T12:51:11.000Z,191
2022-09-06T12:52:27.000Z,185
2022-09-06T12:53:43.000Z,185
2022-09-06T12:55:00.000Z,191
2022-09-06T12:56:16.000Z,191
2022-09-06T12:57:32.000Z,191
2022-09-06T12:58:47.000Z,191
2022-09-06T13:00:03.000Z,191
2022-09-06T13:01:20.000Z,196
2022-09-06T13:03:52.000Z,202
2022-09-06T13:05:08.000Z,202
2022-09-06T13:06:24.000Z,196
2022-09-06T13:07:41.000Z,196
2022-09-06T13:08:56.000Z,202
2022-09-06T13:10:11.000Z,202
2022-09-06T13:11:26.000Z,196
2022-09-06T13:12:41.000Z,196
2022-09-06T13:13:58.000Z,202
2022-09-06T13:15:14.000Z,208
2022-09-06T13:16:30.000Z,208
2022-09-06T13:17:46.000Z,213
2022-09-06T13:19:02.000Z,208
2022-09-06T13:20:19.000Z,208
2022-09-06T13:21:35.000Z,202
2022-09-06T13:22:51.000Z,202
2022-09-06T13:24:07.000Z,208
2022-09-06T13:25:23.000Z,208
2022-09-06T13:26:40.000Z,202
2022-09-06T13:27:56.000Z,185
2022-09-06T13:29:11.000Z,208
2022-09-06T13:30:27.000Z,208
2022-09-06T13:31:43.000Z,151
2022-09-06T13:33:00.000Z,208
2022-09-06T13:34:16.000Z,208
2022-09-06T13:35:32.000Z,213
2022-09-06T13:36:48.000Z,213
2022-09-06T13:38:03.000Z,202
2022-09-06T13:39:19.000Z,157
2022-09-06T13:40:35.000Z,163
2022-09-06T13:41:51.000Z,163
2022-09-06T13:43:06.000Z,168
2022-09-06T13:44:21.000Z,208
2022-09-06T13:45:38.000Z,219
2022-09-06T13:46:54.000Z,185
2022-09-06T13:48:10.000Z,213
2022-09-06T13:49:26.000Z,219
2022-09-06T13:50:42.000Z,225
2022-09-06T13:51:59.000Z,230
2022-09-06T13:53:15.000Z,168
2022-09-06T13:54:31.000Z,196
2022-09-06T13:55:47.000Z,174
2022-09-06T13:57:03.000Z,157
2022-09-06T13:58:19.000Z,163
2022-09-06T13:59:35.000Z,163
2022-09-06T14:00:51.000Z,213
2022-09-06T14:02:07.000Z,230
2022-09-06T14:03:23.000Z,230
2022-09-06T14:04:40.000Z,208
2022-09-06T14:07:12.000Z,219
2022-09-06T14:08:28.000Z,213
2022-09-06T14:09:44.000Z,219
2022-09-06T14:11:00.000Z,225
2022-09-06T14:12:15.000Z,191
2022-09-06T14:13:31.000Z,225
2022-09-06T14:14:46.000Z,219
2022-09-06T14:16:01.000Z,225
2022-09-06T14:17:18.000Z,219
2022-09-06T14:18:34.000Z,151
2022-09-06T14:19:50.000Z,151
2022-09-06T14:21:06.000Z,151
2022-09-06T14:22:22.000Z,151
2022-09-06T14:23:39.000Z,157
2022-09-06T14:24:55.000Z,219
2022-09-06T14:26:11.000Z,196
2022-09-06T14:27:27.000Z,236
2022-09-06T14:28:43.000Z,236
2022-09-06T14:30:00.000Z,230
2022-09-06T14:31:16.000Z,230
2022-09-06T14:32:31.000Z,230
2022-09-06T14:33:47.000Z,236
2022-09-06T14:35:03.000Z,236
2022-09-06T14:36:20.000Z,230
2022-09-06T14:37:36.000Z,236
2022-09-06T14:38:52.000Z,185
2022-09-06T14:40:08.000Z,225
2022-09-06T14:41:23.000Z,225
2022-09-06T14:42:39.000Z,219
2022-09-06T14:43:55.000Z,219
2022-09-06T14:45:11.000Z,219
2022-09-06T14:46:27.000Z,225
2022-09-06T14:47:43.000Z,219
2022-09-06T14:49:00.000Z,219
2022-09-06T14:50:16.000Z,213
2022-09-06T14:51:32.000Z,208
2022-09-06T14:52:48.000Z,208
2022-09-06T14:54:04.000Z,208
2022-09-06T14:55:21.000Z,202
2022-09-06T14:56:37.000Z,151
2022-09-06T14:57:53.000Z,202
2022-09-06T14:59:08.000Z,208
2022-09-06T15:00:24.000Z,208
2022-09-06T15:01:40.000Z,213
2022-09-06T15:02:57.000Z,225
2022-09-06T15:04:13.000Z,225
2022-09-06T15:05:29.000Z,225
2022-09-06T15:06:45.000Z,225
2022-09-06T15:08:01.000Z,230
2022-09-06T15:10:32.000Z,236
2022-09-06T15:11:47.000Z,241
2022-09-06T15:13:02.000Z,241
2022-09-06T15:14:19.000Z,236
2022-09-06T15:15:35.000Z,230
2022-09-06T15:16:51.000Z,225
2022-09-06T15:18:07.000Z,219
2022-09-06T15:19:23.000Z,219
2022-09-06T15:20:40.000Z,225
2022-09-06T15:21:56.000Z,219
2022-09-06T15:23:12.000Z,213
2022-09-06T15:24:28.000Z,213
2022-09-06T15:25:44.000Z,219
2022-09-06T15:27:00.000Z,219
2022-09-06T15:28:17.000Z,213
2022-09-06T15:29:32.000Z,213
2022-09-06T15:30:48.000Z,219
2022-09-06T15:32:04.000Z,213
2022-09-06T15:33:20.000Z,213
2022-09-06T15:34:37.000Z,208
2022-09-06T15:35:53.000Z,208
2022-09-06T15:37:09.000Z,202
2022-09-06T15:38:24.000Z,202
2022-09-06T15:39:40.000Z,202
2022-09-06T15:40:56.000Z,196
2022-09-06T15:42:12.000Z,196
2022-09-06T15:43:27.000Z,196
2022-09-06T15:44:43.000Z,196
2022-09-06T15:46:00.000Z,196
2022-09-06T15:48:32.000Z,191
2022-09-06T15:49:48.000Z,191
2022-09-06T15:51:04.000Z,191
2022-09-06T15:52:20.000Z,185
2022-09-06T15:53:37.000Z,185
2022-09-06T15:54:53.000Z,185
2022-09-06T15:56:09.000Z,185
2022-09-06T15:57:25.000Z,185
2022-09-06T15:58:41.000Z,185
2022-09-06T15:59:57.000Z,185
2022-09-06T16:01:13.000Z,185
2022-09-06T16:02:29.000Z,185
2022-09-06T16:03:45.000Z,185
2022-09-06T16:05:01.000Z,185
2022-09-06T16:06:18.000Z,180
2022-09-06T16:07:34.000Z,180
2022-09-06T16:08:49.000Z,174
2022-09-06T16:10:04.000Z,180
2022-09-06T16:11:21.000Z,180
2022-09-06T16:12:37.000Z,180
2022-09-06T16:13:53.000Z,146
2022-09-06T16:15:09.000Z,157
2022-09-06T16:16:25.000Z,168
2022-09-06T16:17:41.000Z,168
2022-09-06T16:18:58.000Z,157
2022-09-06T16:20:14.000Z,146
2022-09-06T16:21:30.000Z,157
2022-09-06T16:22:46.000Z,151
2022-09-06T16:24:02.000Z,140
2022-09-06T16:26:35.000Z,157
2022-09-06T16:27:50.000Z,151
2022-09-06T16:29:06.000Z,157
2022-09-06T16:30:22.000Z,140
2022-09-06T16:31:39.000Z,146
2022-09-06T16:32:55.000Z,146
2022-09-06T16:34:11.000Z,146
2022-09-06T16:35:27.000Z,146
2022-09-06T16:36:42.000Z,123
2022-09-06T16:37:58.000Z,123
2022-09-06T16:39:14.000Z,135
2022-09-06T16:40:29.000Z,135
2022-09-06T16:41:44.000Z,135
2022-09-06T16:43:00.000Z,135
2022-09-06T16:44:16.000Z,135
2022-09-06T16:45:31.000Z,135
2022-09-06T16:46:47.000Z,135
2022-09-06T16:48:03.000Z,135
2022-09-06T16:49:20.000Z,129
2022-09-06T16:51:52.000Z,118
2022-09-06T16:53:08.000Z,123
2022-09-06T16:54:24.000Z,112
2022-09-06T16:55:40.000Z,112
2022-09-06T16:56:57.000Z,106
2022-09-06T16:58:13.000Z,95
2022-09-06T16:59:29.000Z,101
2022-09-06T17:00:45.000Z,101
2022-09-06T17:02:00.000Z,90
2022-09-06T17:03:17.000Z,90
2022-09-06T17:04:33.000Z,84
2022-09-06T17:05:49.000Z,78
2022-09-06T17:07:05.000Z,78
2022-09-06T17:08:21.000Z,78
2022-09-06T17:09:38.000Z,78
2022-09-06T17:10:54.000Z,78
2022-09-06T17:12:09.000Z,73
2022-09-06T17:13:24.000Z,73
2022-09-06T17:14:40.000Z,73
2022-09-06T17:15:55.000Z,61
2022-09-06T17:17:11.000Z,67
2022-09-06T17:18:27.000Z,73
2022-09-06T17:19:43.000Z,73
2022-09-06T17:21:00.000Z,67
2022-09-06T17:22:16.000Z,61
2022-09-06T17:23:32.000Z,56
2022-09-06T17:24:48.000Z,50
2022-09-06T17:26:04.000Z,45
2022-09-06T17:27:20.000Z,45
2022-09-06T17:29:53.000Z,39
2022-09-06T17:31:09.000Z,39
2022-09-06T17:32:24.000Z,39
2022-09-06T17:33:40.000Z,33
2022-09-06T17:34:57.000Z,33
2022-09-06T17:36:13.000Z,33
2022-09-06T17:37:29.000Z,28
2022-09-06T17:38:45.000Z,28
2022-09-06T17:40:01.000Z,28
2022-09-06T17:41:18.000Z,22
2022-09-06T17:42:33.000Z,22
2022-09-06T17:43:48.000Z,22
2022-09-06T17:45:03.000Z,22
2022-09-06T17:46:19.000Z,22
2022-09-06T17:47:35.000Z,16
2022-09-06T17:48:51.000Z,16
2022-09-06T17:50:07.000Z,16
2022-09-06T17:51:23.000Z,16
2022-09-06T17:52:40.000Z,11
2022-09-06T17:55:12.000Z,11
2022-09-06T17:56:28.000Z,11
2022-09-06T17:57:44.000Z,11
2022-09-06T17:59:00.000Z,5
2022-09-06T18:00:17.000Z,5
2022-09-06T18:01:33.000Z,5
2022-09-06T18:02:48.000Z,5
2022-09-06T18:04:04.000Z,5
2022-09-06T18:05:20.000Z,5
2022-09-06T18:06:37.000Z,0
2022-09-06T18:07:53.000Z,0
2022-09-06T18:09:09.000Z,0
2022-09-06T18:10:25.000Z,0
2022-09-06T18:11:41.000Z,0
2022-09-06T18:12:57.000Z,0
2022-09-06T18:14:12.000Z,0
2022-09-06T18:15:27.000Z,0
2022-09-06T18:16:42.000Z,0
2022-09-06T18:17:59.000Z,0
2022-09-06T18:19:15.000Z,0
2022-09-06T18:20:31.000Z,0
2022-09-06T18:21:47.000Z,0
2022-09-06T18:23:03.000Z,0
2022-09-06T18:24:20.000Z,0
2022-09-06T18:25:36.000Z,0